sensor_id;sensor_type;location;lat;lon;timestamp;P1;durP1;ratioP1;P2;durP2;ratioP2
63953;SDS011;50128;52.094;5.232;2022-08-05T00:00:49;6.7;;;2.1;;
63953;SDS011;50128;52.094;5.232;2022-08-05T00:02:35;5.9;;;2.31;;
63953;SDS011;50128;52.094;5.232;2022-08-05T00:04:23;6.9;;;1.9;;
63953;SDS011;50128;52.094;5.232;2022-08-05T00:07:57;6.6;;;2.1;;
63953;SDS011;50128;52.094;5.232;2022-08-05T00:09:43;6.7;;;1.9;;
63953;SDS011;50128;52.094;5.232;2022-08-05T00:11:30;6.2;;;2.21;;
63953;SDS011;50128;52.094;5.232;2022-08-05T00:13:16;6.0;;;2.0;;
63953;SDS011;50128;52.094;5.232;2022-08-05T00:15:02;5.6;;;2.0;;
63953;SDS011;50128;52.094;5.232;2022-08-05T00:18:35;5.7;;;2.1;;
63953;SDS011;50128;52.094;5.232;2022-08-05T00:20:22;7.0;;;2.1;;
63953;SDS011;50128;52.094;5.232;2022-08-05T00:22:11;6.6;;;1.9;;
63953;SDS011;50128;52.094;5.232;2022-08-05T00:23:59;7.3;;;2.4;;
63953;SDS011;50128;52.094;5.232;2022-08-05T00:25:46;5.2;;;2.0;;
63953;SDS011;50128;52.094;5.232;2022-08-05T00:27:33;7.6;;;2.4;;
63953;SDS011;50128;52.094;5.232;2022-08-05T00:31:06;7.4;;;2.1;;
63953;SDS011;50128;52.094;5.232;2022-08-05T00:32:53;6.5;;;2.21;;
63953;SDS011;50128;52.094;5.232;2022-08-05T00:34:39;8.4;;;2.5;;
63953;SDS011;50128;52.094;5.232;2022-08-05T00:36:26;6.1;;;2.5;;
63953;SDS011;50128;52.094;5.232;2022-08-05T00:38:14;5.11;;;1.9;;
63953;SDS011;50128;52.094;5.232;2022-08-05T00:40:00;5.9;;;1.8;;
63953;SDS011;50128;52.094;5.232;2022-08-05T00:43:33;6.4;;;2.21;;
63953;SDS011;50128;52.094;5.232;2022-08-05T00:45:20;6.2;;;2.1;;
63953;SDS011;50128;52.094;5.232;2022-08-05T00:47:07;7.7;;;2.21;;
63953;SDS011;50128;52.094;5.232;2022-08-05T00:48:54;5.5;;;2.0;;
63953;SDS011;50128;52.094;5.232;2022-08-05T00:50:41;8.1;;;2.6;;
63953;SDS011;50128;52.094;5.232;2022-08-05T00:52:32;5.4;;;2.21;;
63953;SDS011;50128;52.094;5.232;2022-08-05T00:56:07;6.5;;;2.1;;
63953;SDS011;50128;52.094;5.232;2022-08-05T00:57:54;7.9;;;2.31;;
63953;SDS011;50128;52.094;5.232;2022-08-05T00:59:40;6.1;;;2.21;;
63953;SDS011;50128;52.094;5.232;2022-08-05T01:01:27;6.7;;;2.7;;
63953;SDS011;50128;52.094;5.232;2022-08-05T01:03:13;6.6;;;2.21;;
63953;SDS011;50128;52.094;5.232;2022-08-05T01:06:47;6.5;;;2.31;;
63953;SDS011;50128;52.094;5.232;2022-08-05T01:08:33;5.6;;;2.1;;
63953;SDS011;50128;52.094;5.232;2022-08-05T01:10:21;8.31;;;2.4;;
63953;SDS011;50128;52.094;5.232;2022-08-05T01:12:25;6.4;;;2.21;;
63953;SDS011;50128;52.094;5.232;2022-08-05T01:14:13;6.9;;;1.9;;
63953;SDS011;50128;52.094;5.232;2022-08-05T01:16:12;6.9;;;2.5;;
63953;SDS011;50128;52.094;5.232;2022-08-05T01:18:13;5.6;;;2.0;;
63953;SDS011;50128;52.094;5.232;2022-08-05T01:20:11;7.4;;;2.1;;
63953;SDS011;50128;52.094;5.232;2022-08-05T01:22:22;6.8;;;2.21;;
63953;SDS011;50128;52.094;5.232;2022-08-05T01:24:36;4.8;;;2.0;;
63953;SDS011;50128;52.094;5.232;2022-08-05T01:27:39;6.6;;;2.21;;
63953;SDS011;50128;52.094;5.232;2022-08-05T01:29:43;5.8;;;2.1;;
63953;SDS011;50128;52.094;5.232;2022-08-05T01:31:35;7.0;;;2.1;;
63953;SDS011;50128;52.094;5.232;2022-08-05T01:33:30;7.8;;;2.4;;
63953;SDS011;50128;52.094;5.232;2022-08-05T01:35:21;5.8;;;2.1;;
63953;SDS011;50128;52.094;5.232;2022-08-05T01:37:16;8.6;;;2.6;;
63953;SDS011;50128;52.094;5.232;2022-08-05T01:39:07;6.1;;;2.21;;
63953;SDS011;50128;52.094;5.232;2022-08-05T01:40:56;4.41;;;2.0;;
63953;SDS011;50128;52.094;5.232;2022-08-05T01:42:45;6.7;;;2.21;;
63953;SDS011;50128;52.094;5.232;2022-08-05T01:46:24;6.1;;;2.4;;
63953;SDS011;50128;52.094;5.232;2022-08-05T01:48:12;7.0;;;2.21;;
63953;SDS011;50128;52.094;5.232;2022-08-05T01:50:02;7.2;;;2.4;;
63953;SDS011;50128;52.094;5.232;2022-08-05T01:51:54;7.9;;;2.1;;
63953;SDS011;50128;52.094;5.232;2022-08-05T01:53:48;6.9;;;2.4;;
63953;SDS011;50128;52.094;5.232;2022-08-05T01:55:38;6.2;;;2.1;;
63953;SDS011;50128;52.094;5.232;2022-08-05T01:57:29;7.4;;;2.21;;
63953;SDS011;50128;52.094;5.232;2022-08-05T02:01:13;7.4;;;2.5;;
63953;SDS011;50128;52.094;5.232;2022-08-05T02:03:08;7.2;;;2.7;;
63953;SDS011;50128;52.094;5.232;2022-08-05T02:05:03;8.2;;;2.0;;
63953;SDS011;50128;52.094;5.232;2022-08-05T02:06:53;6.4;;;1.9;;
63953;SDS011;50128;52.094;5.232;2022-08-05T02:08:41;6.2;;;1.9;;
63953;SDS011;50128;52.094;5.232;2022-08-05T02:10:30;5.7;;;2.0;;
63953;SDS011;50128;52.094;5.232;2022-08-05T02:12:23;8.6;;;2.21;;
63953;SDS011;50128;52.094;5.232;2022-08-05T02:14:23;6.5;;;2.21;;
63953;SDS011;50128;52.094;5.232;2022-08-05T02:16:18;7.3;;;2.0;;
63953;SDS011;50128;52.094;5.232;2022-08-05T02:20:11;6.8;;;2.4;;
63953;SDS011;50128;52.094;5.232;2022-08-05T02:22:12;7.2;;;1.9;;
63953;SDS011;50128;52.094;5.232;2022-08-05T02:24:03;7.5;;;2.21;;
63953;SDS011;50128;52.094;5.232;2022-08-05T02:25:53;6.6;;;2.21;;
63953;SDS011;50128;52.094;5.232;2022-08-05T02:27:48;8.31;;;2.5;;
63953;SDS011;50128;52.094;5.232;2022-08-05T02:29:36;8.71;;;2.31;;
63953;SDS011;50128;52.094;5.232;2022-08-05T02:31:28;7.3;;;2.4;;
63953;SDS011;50128;52.094;5.232;2022-08-05T02:33:17;6.0;;;2.1;;
63953;SDS011;50128;52.094;5.232;2022-08-05T02:35:08;5.8;;;1.9;;
63953;SDS011;50128;52.094;5.232;2022-08-05T02:38:49;6.0;;;1.9;;
63953;SDS011;50128;52.094;5.232;2022-08-05T02:40:40;6.3;;;1.9;;
63953;SDS011;50128;52.094;5.232;2022-08-05T02:42:29;6.5;;;1.9;;
63953;SDS011;50128;52.094;5.232;2022-08-05T02:44:17;6.7;;;1.9;;
63953;SDS011;50128;52.094;5.232;2022-08-05T02:46:06;6.8;;;1.9;;
63953;SDS011;50128;52.094;5.232;2022-08-05T02:47:53;7.1;;;2.4;;
63953;SDS011;50128;52.094;5.232;2022-08-05T02:49:43;7.5;;;2.21;;
63953;SDS011;50128;52.094;5.232;2022-08-05T02:53:21;6.9;;;2.1;;
63953;SDS011;50128;52.094;5.232;2022-08-05T02:55:10;5.2;;;1.5;;
63953;SDS011;50128;52.094;5.232;2022-08-05T02:56:58;6.2;;;2.0;;
63953;SDS011;50128;52.094;5.232;2022-08-05T02:58:45;6.1;;;1.7;;
63953;SDS011;50128;52.094;5.232;2022-08-05T03:00:36;6.5;;;2.1;;
63953;SDS011;50128;52.094;5.232;2022-08-05T03:02:25;8.2;;;2.1;;
63953;SDS011;50128;52.094;5.232;2022-08-05T03:04:16;6.0;;;1.7;;
63953;SDS011;50128;52.094;5.232;2022-08-05T03:07:52;5.6;;;2.0;;
63953;SDS011;50128;52.094;5.232;2022-08-05T03:09:40;4.91;;;1.9;;
63953;SDS011;50128;52.094;5.232;2022-08-05T03:11:28;6.6;;;1.8;;
63953;SDS011;50128;52.094;5.232;2022-08-05T03:13:15;4.61;;;1.9;;
63953;SDS011;50128;52.094;5.232;2022-08-05T03:15:04;4.61;;;1.9;;
63953;SDS011;50128;52.094;5.232;2022-08-05T03:16:53;7.3;;;2.31;;
63953;SDS011;50128;52.094;5.232;2022-08-05T03:20:26;5.8;;;2.1;;
63953;SDS011;50128;52.094;5.232;2022-08-05T03:22:13;7.6;;;2.1;;
63953;SDS011;50128;52.094;5.232;2022-08-05T03:24:00;7.1;;;2.0;;
63953;SDS011;50128;52.094;5.232;2022-08-05T03:25:48;9.6;;;2.31;;
63953;SDS011;50128;52.094;5.232;2022-08-05T03:27:35;5.3;;;2.1;;
63953;SDS011;50128;52.094;5.232;2022-08-05T03:29:22;7.3;;;2.1;;
63953;SDS011;50128;52.094;5.232;2022-08-05T03:32:59;6.9;;;2.1;;
63953;SDS011;50128;52.094;5.232;2022-08-05T03:34:46;5.7;;;2.0;;
63953;SDS011;50128;52.094;5.232;2022-08-05T03:36:33;7.0;;;1.8;;
63953;SDS011;50128;52.094;5.232;2022-08-05T03:38:21;7.6;;;2.31;;
63953;SDS011;50128;52.094;5.232;2022-08-05T03:40:09;5.6;;;1.6;;
63953;SDS011;50128;52.094;5.232;2022-08-05T03:41:55;6.6;;;2.21;;
63953;SDS011;50128;52.094;5.232;2022-08-05T03:45:29;7.1;;;2.4;;
63953;SDS011;50128;52.094;5.232;2022-08-05T03:47:16;5.8;;;2.21;;
63953;SDS011;50128;52.094;5.232;2022-08-05T03:49:02;6.4;;;2.31;;
63953;SDS011;50128;52.094;5.232;2022-08-05T03:50:50;6.0;;;2.0;;
63953;SDS011;50128;52.094;5.232;2022-08-05T03:52:43;6.3;;;2.1;;
63953;SDS011;50128;52.094;5.232;2022-08-05T03:54:48;7.0;;;2.4;;
63953;SDS011;50128;52.094;5.232;2022-08-05T03:56:39;6.1;;;2.31;;
63953;SDS011;50128;52.094;5.232;2022-08-05T04:00:25;7.4;;;1.9;;
63953;SDS011;50128;52.094;5.232;2022-08-05T04:02:14;7.2;;;2.31;;
63953;SDS011;50128;52.094;5.232;2022-08-05T04:04:03;6.7;;;2.0;;
63953;SDS011;50128;52.094;5.232;2022-08-05T04:05:52;6.1;;;2.31;;
63953;SDS011;50128;52.094;5.232;2022-08-05T04:07:40;7.1;;;2.31;;
63953;SDS011;50128;52.094;5.232;2022-08-05T04:09:28;6.9;;;2.31;;
63953;SDS011;50128;52.094;5.232;2022-08-05T04:11:15;6.8;;;2.4;;
63953;SDS011;50128;52.094;5.232;2022-08-05T04:14:52;8.4;;;2.4;;
63953;SDS011;50128;52.094;5.232;2022-08-05T04:16:39;7.2;;;2.5;;
63953;SDS011;50128;52.094;5.232;2022-08-05T04:18:26;5.8;;;2.8;;
63953;SDS011;50128;52.094;5.232;2022-08-05T04:20:17;5.8;;;2.31;;
63953;SDS011;50128;52.094;5.232;2022-08-05T04:22:04;7.0;;;2.31;;
63953;SDS011;50128;52.094;5.232;2022-08-05T04:23:51;7.0;;;2.4;;
63953;SDS011;50128;52.094;5.232;2022-08-05T04:27:23;7.0;;;2.5;;
63953;SDS011;50128;52.094;5.232;2022-08-05T04:29:09;7.7;;;2.31;;
63953;SDS011;50128;52.094;5.232;2022-08-05T04:30:56;7.7;;;2.4;;
63953;SDS011;50128;52.094;5.232;2022-08-05T04:32:43;6.6;;;2.31;;
63953;SDS011;50128;52.094;5.232;2022-08-05T04:34:30;7.3;;;2.5;;
63953;SDS011;50128;52.094;5.232;2022-08-05T04:38:04;7.1;;;2.4;;
63953;SDS011;50128;52.094;5.232;2022-08-05T04:39:50;5.6;;;1.8;;
63953;SDS011;50128;52.094;5.232;2022-08-05T04:41:36;7.2;;;2.0;;
63953;SDS011;50128;52.094;5.232;2022-08-05T04:43:22;4.91;;;2.0;;
63953;SDS011;50128;52.094;5.232;2022-08-05T04:45:09;4.8;;;1.8;;
63953;SDS011;50128;52.094;5.232;2022-08-05T04:46:56;5.7;;;1.8;;
63953;SDS011;50128;52.094;5.232;2022-08-05T04:50:29;6.0;;;2.21;;
63953;SDS011;50128;52.094;5.232;2022-08-05T04:52:16;5.5;;;1.8;;
63953;SDS011;50128;52.094;5.232;2022-08-05T04:54:02;4.8;;;1.6;;
63953;SDS011;50128;52.094;5.232;2022-08-05T04:55:49;5.8;;;2.0;;
63953;SDS011;50128;52.094;5.232;2022-08-05T04:57:35;4.5;;;1.6;;
63953;SDS011;50128;52.094;5.232;2022-08-05T04:59:22;5.8;;;2.0;;
63953;SDS011;50128;52.094;5.232;2022-08-05T05:02:55;5.4;;;1.8;;
63953;SDS011;50128;52.094;5.232;2022-08-05T05:04:41;5.0;;;1.7;;
63953;SDS011;50128;52.094;5.232;2022-08-05T05:06:27;4.5;;;1.7;;
63953;SDS011;50128;52.094;5.232;2022-08-05T05:08:14;5.8;;;2.0;;
63953;SDS011;50128;52.094;5.232;2022-08-05T05:10:05;4.8;;;1.9;;
63953;SDS011;50128;52.094;5.232;2022-08-05T05:13:37;4.7;;;1.8;;
63953;SDS011;50128;52.094;5.232;2022-08-05T05:15:23;5.0;;;1.8;;
63953;SDS011;50128;52.094;5.232;2022-08-05T05:17:10;4.2;;;1.8;;
63953;SDS011;50128;52.094;5.232;2022-08-05T05:18:56;9.81;;;2.21;;
63953;SDS011;50128;52.094;5.232;2022-08-05T05:20:44;5.3;;;1.8;;
63953;SDS011;50128;52.094;5.232;2022-08-05T05:22:31;3.8;;;1.7;;
63953;SDS011;50128;52.094;5.232;2022-08-05T05:26:07;5.0;;;1.6;;
63953;SDS011;50128;52.094;5.232;2022-08-05T05:27:54;4.2;;;1.7;;
63953;SDS011;50128;52.094;5.232;2022-08-05T05:29:41;4.2;;;1.6;;
63953;SDS011;50128;52.094;5.232;2022-08-05T05:31:27;5.2;;;1.8;;
63953;SDS011;50128;52.094;5.232;2022-08-05T05:33:14;6.3;;;1.9;;
63953;SDS011;50128;52.094;5.232;2022-08-05T05:35:02;5.0;;;1.7;;
63953;SDS011;50128;52.094;5.232;2022-08-05T05:38:34;5.6;;;1.9;;
63953;SDS011;50128;52.094;5.232;2022-08-05T05:40:21;6.8;;;2.0;;
63953;SDS011;50128;52.094;5.232;2022-08-05T05:42:10;4.61;;;1.8;;
63953;SDS011;50128;52.094;5.232;2022-08-05T05:43:56;4.8;;;1.9;;
63953;SDS011;50128;52.094;5.232;2022-08-05T05:45:43;6.2;;;1.9;;
63953;SDS011;50128;52.094;5.232;2022-08-05T05:47:29;3.7;;;1.7;;
63953;SDS011;50128;52.094;5.232;2022-08-05T05:51:02;6.1;;;1.9;;
63953;SDS011;50128;52.094;5.232;2022-08-05T05:52:49;5.5;;;1.9;;
63953;SDS011;50128;52.094;5.232;2022-08-05T05:54:35;4.41;;;1.5;;
63953;SDS011;50128;52.094;5.232;2022-08-05T05:56:23;6.0;;;1.7;;
63953;SDS011;50128;52.094;5.232;2022-08-05T05:58:10;5.4;;;1.7;;
63953;SDS011;50128;52.094;5.232;2022-08-05T06:01:43;4.2;;;1.3;;
63953;SDS011;50128;52.094;5.232;2022-08-05T06:03:29;4.41;;;1.4;;
63953;SDS011;50128;52.094;5.232;2022-08-05T06:05:15;3.8;;;1.2;;
63953;SDS011;50128;52.094;5.232;2022-08-05T06:07:02;4.2;;;1.5;;
63953;SDS011;50128;52.094;5.232;2022-08-05T06:08:48;4.5;;;1.3;;
63953;SDS011;50128;52.094;5.232;2022-08-05T06:10:35;4.3;;;1.4;;
63953;SDS011;50128;52.094;5.232;2022-08-05T06:14:08;4.5;;;1.3;;
63953;SDS011;50128;52.094;5.232;2022-08-05T06:15:54;4.91;;;1.5;;
63953;SDS011;50128;52.094;5.232;2022-08-05T06:17:41;4.2;;;1.4;;
63953;SDS011;50128;52.094;5.232;2022-08-05T06:19:28;4.1;;;1.2;;
63953;SDS011;50128;52.094;5.232;2022-08-05T06:21:14;3.9;;;1.4;;
63953;SDS011;50128;52.094;5.232;2022-08-05T06:23:00;4.91;;;1.3;;
63953;SDS011;50128;52.094;5.232;2022-08-05T06:26:33;3.4;;;1.2;;
63953;SDS011;50128;52.094;5.232;2022-08-05T06:28:20;2.8;;;1.11;;
63953;SDS011;50128;52.094;5.232;2022-08-05T06:30:06;4.0;;;1.4;;
63953;SDS011;50128;52.094;5.232;2022-08-05T06:31:54;4.7;;;1.2;;
63953;SDS011;50128;52.094;5.232;2022-08-05T06:33:40;4.0;;;1.11;;
63953;SDS011;50128;52.094;5.232;2022-08-05T06:37:13;3.6;;;1.2;;
63953;SDS011;50128;52.094;5.232;2022-08-05T06:39:00;3.8;;;1.2;;
63953;SDS011;50128;52.094;5.232;2022-08-05T06:40:46;3.9;;;1.4;;
63953;SDS011;50128;52.094;5.232;2022-08-05T06:42:33;3.6;;;1.3;;
63953;SDS011;50128;52.094;5.232;2022-08-05T06:44:21;2.5;;;0.9;;
63953;SDS011;50128;52.094;5.232;2022-08-05T06:46:07;3.7;;;1.2;;
63953;SDS011;50128;52.094;5.232;2022-08-05T06:49:39;3.3;;;1.3;;
63953;SDS011;50128;52.094;5.232;2022-08-05T06:51:25;2.8;;;1.0;;
63953;SDS011;50128;52.094;5.232;2022-08-05T06:53:13;5.11;;;1.2;;
63953;SDS011;50128;52.094;5.232;2022-08-05T06:54:59;4.2;;;1.3;;
63953;SDS011;50128;52.094;5.232;2022-08-05T06:56:46;4.1;;;1.11;;
63953;SDS011;50128;52.094;5.232;2022-08-05T07:00:20;3.6;;;1.0;;
63953;SDS011;50128;52.094;5.232;2022-08-05T07:02:06;5.8;;;1.2;;
63953;SDS011;50128;52.094;5.232;2022-08-05T07:03:54;2.7;;;0.9;;
63953;SDS011;50128;52.094;5.232;2022-08-05T07:05:40;3.5;;;1.2;;
63953;SDS011;50128;52.094;5.232;2022-08-05T07:07:26;2.9;;;0.7;;
63953;SDS011;50128;52.094;5.232;2022-08-05T07:09:12;3.4;;;1.0;;
63953;SDS011;50128;52.094;5.232;2022-08-05T07:16:59;3.5;;;1.0;;
63953;SDS011;50128;52.094;5.232;2022-08-05T07:18:45;2.4;;;0.7;;
63953;SDS011;50128;52.094;5.232;2022-08-05T07:20:31;4.7;;;0.9;;
63953;SDS011;50128;52.094;5.232;2022-08-05T07:22:21;3.6;;;0.7;;
63953;SDS011;50128;52.094;5.232;2022-08-05T07:24:08;2.5;;;0.6;;
63953;SDS011;50128;52.094;5.232;2022-08-05T07:25:55;2.9;;;0.6;;
63953;SDS011;50128;52.094;5.232;2022-08-05T07:29:27;2.1;;;0.5;;
63953;SDS011;50128;52.094;5.232;2022-08-05T07:31:13;2.21;;;0.5;;
63953;SDS011;50128;52.094;5.232;2022-08-05T07:33:00;2.5;;;0.7;;
63953;SDS011;50128;52.094;5.232;2022-08-05T07:34:46;2.8;;;0.7;;
63953;SDS011;50128;52.094;5.232;2022-08-05T07:36:33;3.3;;;0.8;;
63953;SDS011;50128;52.094;5.232;2022-08-05T07:38:20;2.8;;;0.7;;
63953;SDS011;50128;52.094;5.232;2022-08-05T07:41:54;3.6;;;0.6;;
63953;SDS011;50128;52.094;5.232;2022-08-05T07:43:40;3.0;;;0.7;;
63953;SDS011;50128;52.094;5.232;2022-08-05T07:45:26;2.31;;;0.6;;
63953;SDS011;50128;52.094;5.232;2022-08-05T07:47:14;3.1;;;0.7;;
63953;SDS011;50128;52.094;5.232;2022-08-05T07:49:02;5.2;;;0.7;;
63953;SDS011;50128;52.094;5.232;2022-08-05T07:52:36;3.2;;;0.7;;
63953;SDS011;50128;52.094;5.232;2022-08-05T07:54:25;2.6;;;0.6;;
63953;SDS011;50128;52.094;5.232;2022-08-05T07:56:11;2.6;;;0.6;;
63953;SDS011;50128;52.094;5.232;2022-08-05T07:57:57;2.1;;;0.6;;
63953;SDS011;50128;52.094;5.232;2022-08-05T07:59:43;3.2;;;0.7;;
63953;SDS011;50128;52.094;5.232;2022-08-05T08:01:29;2.21;;;0.6;;
63953;SDS011;50128;52.094;5.232;2022-08-05T08:05:03;2.7;;;0.5;;
63953;SDS011;50128;52.094;5.232;2022-08-05T08:06:50;2.21;;;0.5;;
63953;SDS011;50128;52.094;5.232;2022-08-05T08:08:36;2.8;;;0.6;;
63953;SDS011;50128;52.094;5.232;2022-08-05T08:10:22;2.0;;;0.5;;
63953;SDS011;50128;52.094;5.232;2022-08-05T08:12:08;4.5;;;0.5;;
63953;SDS011;50128;52.094;5.232;2022-08-05T08:13:55;1.5;;;0.5;;
63953;SDS011;50128;52.094;5.232;2022-08-05T08:17:29;2.4;;;0.5;;
63953;SDS011;50128;52.094;5.232;2022-08-05T08:19:16;1.7;;;0.5;;
63953;SDS011;50128;52.094;5.232;2022-08-05T08:21:02;2.21;;;0.6;;
63953;SDS011;50128;52.094;5.232;2022-08-05T08:22:50;1.6;;;0.5;;
63953;SDS011;50128;52.094;5.232;2022-08-05T08:24:37;3.9;;;0.7;;
63953;SDS011;50128;52.094;5.232;2022-08-05T08:26:25;2.8;;;0.5;;
63953;SDS011;50128;52.094;5.232;2022-08-05T08:31:44;1.7;;;0.4;;
63953;SDS011;50128;52.094;5.232;2022-08-05T08:33:31;2.31;;;0.6;;
63953;SDS011;50128;52.094;5.232;2022-08-05T08:35:17;1.9;;;0.5;;
63953;SDS011;50128;52.094;5.232;2022-08-05T08:37:03;1.7;;;0.5;;
63953;SDS011;50128;52.094;5.232;2022-08-05T08:40:41;1.6;;;0.6;;
63953;SDS011;50128;52.094;5.232;2022-08-05T08:42:29;3.3;;;0.8;;
63953;SDS011;50128;52.094;5.232;2022-08-05T08:44:18;3.2;;;0.7;;
63953;SDS011;50128;52.094;5.232;2022-08-05T08:46:05;2.0;;;0.5;;
63953;SDS011;50128;52.094;5.232;2022-08-05T08:47:53;2.21;;;0.5;;
63953;SDS011;50128;52.094;5.232;2022-08-05T08:49:43;2.7;;;0.5;;
63953;SDS011;50128;52.094;5.232;2022-08-05T08:51:33;3.2;;;0.5;;
63953;SDS011;50128;52.094;5.232;2022-08-05T08:55:12;2.4;;;0.6;;
63953;SDS011;50128;52.094;5.232;2022-08-05T08:56:58;1.9;;;0.4;;
63953;SDS011;50128;52.094;5.232;2022-08-05T08:58:46;4.1;;;0.6;;
63953;SDS011;50128;52.094;5.232;2022-08-05T09:00:33;1.7;;;0.5;;
63953;SDS011;50128;52.094;5.232;2022-08-05T09:02:21;1.6;;;0.5;;
63953;SDS011;50128;52.094;5.232;2022-08-05T09:04:09;3.7;;;0.5;;
63953;SDS011;50128;52.094;5.232;2022-08-05T09:07:42;2.31;;;0.5;;
63953;SDS011;50128;52.094;5.232;2022-08-05T09:09:29;2.31;;;0.5;;
63953;SDS011;50128;52.094;5.232;2022-08-05T09:11:15;3.1;;;0.6;;
63953;SDS011;50128;52.094;5.232;2022-08-05T09:13:01;5.3;;;0.7;;
63953;SDS011;50128;52.094;5.232;2022-08-05T09:14:47;2.0;;;0.5;;
63953;SDS011;50128;52.094;5.232;2022-08-05T09:18:20;2.0;;;0.5;;
63953;SDS011;50128;52.094;5.232;2022-08-05T09:20:07;1.9;;;0.4;;
63953;SDS011;50128;52.094;5.232;2022-08-05T09:21:56;2.21;;;0.6;;
63953;SDS011;50128;52.094;5.232;2022-08-05T09:23:43;2.1;;;0.5;;
63953;SDS011;50128;52.094;5.232;2022-08-05T09:25:31;1.3;;;0.4;;
63953;SDS011;50128;52.094;5.232;2022-08-05T09:27:25;2.6;;;0.4;;
63953;SDS011;50128;52.094;5.232;2022-08-05T09:29:17;3.2;;;0.5;;
63953;SDS011;50128;52.094;5.232;2022-08-05T09:32:54;2.8;;;0.6;;
63953;SDS011;50128;52.094;5.232;2022-08-05T09:34:47;1.9;;;0.5;;
63953;SDS011;50128;52.094;5.232;2022-08-05T09:36:39;1.5;;;0.4;;
63953;SDS011;50128;52.094;5.232;2022-08-05T09:38:29;3.2;;;0.6;;
63953;SDS011;50128;52.094;5.232;2022-08-05T09:40:31;3.0;;;0.5;;
63953;SDS011;50128;52.094;5.232;2022-08-05T09:42:20;1.6;;;0.4;;
63953;SDS011;50128;52.094;5.232;2022-08-05T09:44:08;2.21;;;0.5;;
63953;SDS011;50128;52.094;5.232;2022-08-05T09:45:54;1.9;;;0.5;;
63953;SDS011;50128;52.094;5.232;2022-08-05T09:49:27;2.31;;;0.4;;
63953;SDS011;50128;52.094;5.232;2022-08-05T09:51:13;1.9;;;0.5;;
63953;SDS011;50128;52.094;5.232;2022-08-05T09:53:00;2.6;;;0.7;;
63953;SDS011;50128;52.094;5.232;2022-08-05T09:54:54;3.6;;;0.6;;
63953;SDS011;50128;52.094;5.232;2022-08-05T09:56:45;2.21;;;0.6;;
63953;SDS011;50128;52.094;5.232;2022-08-05T09:58:31;2.0;;;0.7;;
63953;SDS011;50128;52.094;5.232;2022-08-05T10:02:06;2.4;;;0.6;;
63953;SDS011;50128;52.094;5.232;2022-08-05T10:03:56;2.0;;;0.5;;
63953;SDS011;50128;52.094;5.232;2022-08-05T10:05:44;2.4;;;0.6;;
63953;SDS011;50128;52.094;5.232;2022-08-05T10:07:47;3.5;;;0.6;;
63953;SDS011;50128;52.094;5.232;2022-08-05T10:09:37;2.6;;;0.6;;
63953;SDS011;50128;52.094;5.232;2022-08-05T10:11:41;2.5;;;0.6;;
63953;SDS011;50128;52.094;5.232;2022-08-05T10:13:30;2.0;;;0.4;;
63953;SDS011;50128;52.094;5.232;2022-08-05T10:15:20;2.31;;;0.6;;
63953;SDS011;50128;52.094;5.232;2022-08-05T10:18:59;2.31;;;0.6;;
63953;SDS011;50128;52.094;5.232;2022-08-05T10:20:48;3.1;;;0.6;;
63953;SDS011;50128;52.094;5.232;2022-08-05T10:22:37;2.7;;;0.4;;
63953;SDS011;50128;52.094;5.232;2022-08-05T10:24:25;2.5;;;0.5;;
63953;SDS011;50128;52.094;5.232;2022-08-05T10:26:13;3.6;;;0.7;;
63953;SDS011;50128;52.094;5.232;2022-08-05T10:28:00;2.31;;;0.6;;
63953;SDS011;50128;52.094;5.232;2022-08-05T10:31:35;2.7;;;0.5;;
63953;SDS011;50128;52.094;5.232;2022-08-05T10:33:22;3.1;;;0.6;;
63953;SDS011;50128;52.094;5.232;2022-08-05T10:35:11;2.21;;;0.3;;
63953;SDS011;50128;52.094;5.232;2022-08-05T10:37:01;2.7;;;0.5;;
63953;SDS011;50128;52.094;5.232;2022-08-05T10:38:48;3.1;;;0.5;;
63953;SDS011;50128;52.094;5.232;2022-08-05T10:40:45;3.1;;;0.5;;
63953;SDS011;50128;52.094;5.232;2022-08-05T10:42:41;3.1;;;0.5;;
63953;SDS011;50128;52.094;5.232;2022-08-05T10:44:34;2.6;;;0.5;;
63953;SDS011;50128;52.094;5.232;2022-08-05T10:48:41;1.3;;;0.4;;
63953;SDS011;50128;52.094;5.232;2022-08-05T10:50:28;2.1;;;0.4;;
63953;SDS011;50128;52.094;5.232;2022-08-05T10:52:17;1.8;;;0.5;;
63953;SDS011;50128;52.094;5.232;2022-08-05T10:54:23;1.6;;;0.5;;
63953;SDS011;50128;52.094;5.232;2022-08-05T10:56:43;1.5;;;0.4;;
63953;SDS011;50128;52.094;5.232;2022-08-05T10:58:31;1.2;;;0.3;;
63953;SDS011;50128;52.094;5.232;2022-08-05T11:00:19;1.6;;;0.4;;
63953;SDS011;50128;52.094;5.232;2022-08-05T11:02:08;2.6;;;0.4;;
63953;SDS011;50128;52.094;5.232;2022-08-05T11:03:58;2.1;;;0.4;;
63953;SDS011;50128;52.094;5.232;2022-08-05T11:06:06;2.4;;;0.5;;
63953;SDS011;50128;52.094;5.232;2022-08-05T11:07:57;2.0;;;0.4;;
63953;SDS011;50128;52.094;5.232;2022-08-05T11:09:45;3.0;;;0.6;;
63953;SDS011;50128;52.094;5.232;2022-08-05T11:13:37;2.21;;;0.4;;
63953;SDS011;50128;52.094;5.232;2022-08-05T11:15:28;1.9;;;0.4;;
63953;SDS011;50128;52.094;5.232;2022-08-05T11:17:33;1.9;;;0.5;;
63953;SDS011;50128;52.094;5.232;2022-08-05T11:19:25;3.1;;;0.7;;
63953;SDS011;50128;52.094;5.232;2022-08-05T11:21:31;3.1;;;0.5;;
63953;SDS011;50128;52.094;5.232;2022-08-05T11:23:34;2.0;;;0.4;;
63953;SDS011;50128;52.094;5.232;2022-08-05T11:25:28;3.6;;;0.5;;
63953;SDS011;50128;52.094;5.232;2022-08-05T11:27:32;1.6;;;0.3;;
63953;SDS011;50128;52.094;5.232;2022-08-05T11:29:35;3.5;;;0.5;;
63953;SDS011;50128;52.094;5.232;2022-08-05T11:31:28;1.4;;;0.4;;
63953;SDS011;50128;52.094;5.232;2022-08-05T11:33:23;2.1;;;0.4;;
63953;SDS011;50128;52.094;5.232;2022-08-05T11:35:50;1.5;;;0.7;;
63953;SDS011;50128;52.094;5.232;2022-08-05T11:37:40;2.4;;;0.3;;
63953;SDS011;50128;52.094;5.232;2022-08-05T11:39:54;1.9;;;0.3;;
63953;SDS011;50128;52.094;5.232;2022-08-05T11:41:49;2.1;;;0.6;;
63953;SDS011;50128;52.094;5.232;2022-08-05T11:43:38;2.7;;;0.5;;
63953;SDS011;50128;52.094;5.232;2022-08-05T11:45:28;2.21;;;0.4;;
63953;SDS011;50128;52.094;5.232;2022-08-05T11:47:19;1.7;;;0.4;;
63953;SDS011;50128;52.094;5.232;2022-08-05T11:50:57;1.6;;;0.3;;
63953;SDS011;50128;52.094;5.232;2022-08-05T11:52:44;2.5;;;0.4;;
63953;SDS011;50128;52.094;5.232;2022-08-05T11:54:32;3.3;;;0.5;;
63953;SDS011;50128;52.094;5.232;2022-08-05T11:56:20;1.4;;;0.3;;
63953;SDS011;50128;52.094;5.232;2022-08-05T11:58:06;3.5;;;0.6;;
63953;SDS011;50128;52.094;5.232;2022-08-05T11:59:52;2.0;;;0.4;;
63953;SDS011;50128;52.094;5.232;2022-08-05T12:03:39;1.7;;;0.3;;
63953;SDS011;50128;52.094;5.232;2022-08-05T12:05:28;2.6;;;0.4;;
63953;SDS011;50128;52.094;5.232;2022-08-05T12:07:14;3.6;;;0.6;;
63953;SDS011;50128;52.094;5.232;2022-08-05T12:09:04;2.21;;;0.5;;
63953;SDS011;50128;52.094;5.232;2022-08-05T12:10:50;2.31;;;0.6;;
63953;SDS011;50128;52.094;5.232;2022-08-05T12:12:42;3.8;;;0.7;;
63953;SDS011;50128;52.094;5.232;2022-08-05T12:14:34;2.4;;;0.5;;
63953;SDS011;50128;52.094;5.232;2022-08-05T12:18:16;2.5;;;0.6;;
63953;SDS011;50128;52.094;5.232;2022-08-05T12:20:04;2.1;;;0.7;;
63953;SDS011;50128;52.094;5.232;2022-08-05T12:21:51;2.4;;;0.8;;
63953;SDS011;50128;52.094;5.232;2022-08-05T12:23:38;3.7;;;0.8;;
63953;SDS011;50128;52.094;5.232;2022-08-05T12:25:24;3.7;;;0.8;;
63953;SDS011;50128;52.094;5.232;2022-08-05T12:27:17;4.2;;;0.8;;
63953;SDS011;50128;52.094;5.232;2022-08-05T12:29:05;2.6;;;0.6;;
63953;SDS011;50128;52.094;5.232;2022-08-05T12:32:42;4.0;;;0.9;;
63953;SDS011;50128;52.094;5.232;2022-08-05T12:34:31;2.6;;;0.6;;
63953;SDS011;50128;52.094;5.232;2022-08-05T12:38:07;3.0;;;0.7;;
63953;SDS011;50128;52.094;5.232;2022-08-05T12:39:54;1.8;;;0.5;;
63953;SDS011;50128;52.094;5.232;2022-08-05T12:41:42;2.8;;;0.5;;
63953;SDS011;50128;52.094;5.232;2022-08-05T12:45:18;3.5;;;0.5;;
63953;SDS011;50128;52.094;5.232;2022-08-05T12:47:04;2.1;;;0.5;;
63953;SDS011;50128;52.094;5.232;2022-08-05T12:48:59;2.5;;;0.5;;
63953;SDS011;50128;52.094;5.232;2022-08-05T12:51:21;1.8;;;0.4;;
63953;SDS011;50128;52.094;5.232;2022-08-05T12:53:14;2.0;;;0.5;;
63953;SDS011;50128;52.094;5.232;2022-08-05T12:55:01;2.1;;;0.4;;
63953;SDS011;50128;52.094;5.232;2022-08-05T12:57:03;2.5;;;0.7;;
63953;SDS011;50128;52.094;5.232;2022-08-05T12:59:25;1.9;;;0.3;;
63953;SDS011;50128;52.094;5.232;2022-08-05T13:01:13;2.1;;;0.5;;
63953;SDS011;50128;52.094;5.232;2022-08-05T13:02:59;2.1;;;0.5;;
63953;SDS011;50128;52.094;5.232;2022-08-05T13:04:47;1.8;;;0.5;;